Latest Weather Observations for Hunters Hill

IDV60801

Issued at 10:02 am EST Wednesday 28 September 2016 (issued every 30 minutes, with the page automatically refreshed every 10 minutes)

About weather observations | Map of weather stations | Latest weather observations for VIC | Other Formats
Station Details ID: 082139 Name: HUNTERS HILL Lat: -36.21 Lon: 147.54 Height: 981.0 m
Data from the previous 72 hours. | See also: Recent months at Hunters Hill
Date/Time
EST
Temp
°C
App
Temp
°C
Dew
Point
°C
Rel
Hum
%
Delta-T
°C
Wind Press
QNH
hPa
Press
MSL
hPa
Rain since
9am
mm
Dir  Spd
km/h
Gust
km/h
Spd
kts
Gust
kts
28/09:30am 8.0 5.9 3.8 75 1.9 ESE 4 6 2 3 - - 0.0
28/09:00am 7.7 5.8 4.7 81 1.4 ESE 4 6 2 3 - - 0.0
28/08:30am 7.5 5.9 6.3 92 0.6 ESE 4 7 2 4 - - 0.0
28/08:00am 6.5 4.9 6.5 100 0.0 SE 4 6 2 3 - - 0.0
28/07:30am 5.0 3.1 5.0 100 0.0 SE 4 7 2 4 - - 0.0
28/07:00am 4.4 2.8 4.4 100 0.0 W 2 4 1 2 - - 0.0
28/06:30am 4.2 2.2 4.2 100 0.0 W 4 6 2 3 - - 0.0
28/06:00am 4.0 1.9 4.0 100 0.0 W 4 6 2 3 - - 0.0
28/05:30am 4.0 2.7 4.0 100 0.0 CALM 0 4 0 2 - - 0.0
28/05:00am 4.3 3.0 4.3 100 0.0 CALM 0 0 0 0 - - 0.0
28/04:30am 4.6 2.6 4.6 100 0.0 W 4 6 2 3 - - 0.0
28/04:00am 4.6 2.3 4.6 100 0.0 WSW 6 9 3 5 - - 0.0
28/03:30am 4.6 2.1 4.6 100 0.0 W 7 9 4 5 - - 0.0
28/03:00am 4.6 2.3 4.6 100 0.0 W 6 7 3 4 - - 0.0
28/02:30am 4.6 2.6 4.6 100 0.0 WSW 4 7 2 4 - - 0.0
28/02:00am 4.7 2.4 4.7 100 0.0 WSW 6 11 3 6 - - 0.0
28/01:30am 4.6 1.7 4.6 100 0.0 WSW 9 15 5 8 - - 0.0
28/01:00am 4.7 1.4 4.7 100 0.0 WSW 11 20 6 11 - - 0.0
28/12:30am 4.5 1.2 4.5 100 0.0 W 11 20 6 11 - - 0.0
28/12:00am 4.3 1.0 4.3 100 0.0 W 11 20 6 11 - - 0.0
 
Date/Time
EST
Temp
°C
App
Temp
°C
Dew
Point
°C
Rel
Hum
%
Delta-T
°C
Wind Press
QNH
hPa
Press
MSL
hPa
Rain since
9am
mm
Dir  Spd
km/h
Gust
km/h
Spd
kts
Gust
kts
27/11:30pm 4.3 0.9 4.2 99 0.0 W 11 17 6 9 - - 0.0
27/11:00pm 4.5 1.6 4.4 99 0.0 WSW 9 17 5 9 - - 0.0
27/10:30pm 4.8 1.9 4.7 99 0.0 W 9 19 5 10 - - 0.0
27/10:00pm 5.0 1.7 4.6 97 0.2 WSW 11 22 6 12 - - 0.0
27/09:30pm 4.4 1.0 4.0 97 0.2 W 11 17 6 9 - - 0.0
27/09:00pm 4.4 0.9 3.7 95 0.3 W 11 19 6 10 - - 0.0
27/08:30pm 4.6 1.4 3.3 91 0.6 W 9 13 5 7 - - 0.0
27/08:00pm 4.8 1.2 3.1 89 0.7 W 11 20 6 11 - - 0.0
27/07:30pm 5.0 1.9 3.8 92 0.5 W 9 15 5 8 - - 0.0
27/07:00pm 5.0 2.3 3.7 91 0.6 W 7 13 4 7 - - 0.0
27/06:30pm 5.3 2.6 3.6 89 0.8 W 7 15 4 8 - - 0.0
27/06:00pm 5.5 2.0 3.7 88 0.8 W 11 22 6 12 - - 0.0
27/05:30pm 5.5 2.0 3.7 88 0.8 W 11 22 6 12 - - 0.0
27/05:00pm 5.7 2.6 3.5 86 1.0 W 9 20 5 11 - - 0.0
27/04:30pm 6.3 2.8 3.5 82 1.3 W 11 20 6 11 - - 0.0
27/04:00pm 6.7 3.8 2.6 75 1.8 W 7 20 4 11 - - 0.0
27/03:30pm 7.5 3.1 2.8 72 2.1 W 15 28 8 15 - - 0.0
27/03:00pm 6.4 2.4 2.9 78 1.5 W 13 24 7 13 - - 0.0
27/02:30pm 6.1 2.4 2.6 78 1.5 NW 11 24 6 13 - - 0.0
27/02:00pm 6.1 2.1 3.1 81 1.3 W 13 24 7 13 - - 0.0
27/01:30pm 6.7 2.6 2.2 73 2.0 W 13 26 7 14 - - 0.0
27/01:00pm 5.8 2.1 2.4 79 1.5 W 11 22 6 12 - - 0.0
27/12:30pm 6.0 1.9 2.1 76 1.7 W 13 26 7 14 - - 0.0
27/12:00pm 6.6 3.6 3.9 83 1.2 W 9 22 5 12 - - 0.0
27/11:30am 5.8 2.6 3.3 84 1.1 W 9 17 5 9 - - 0.0
27/11:00am 5.5 2.6 2.8 83 1.2 W 7 19 4 10 - - 0.0
27/10:30am 5.3 2.0 2.5 82 1.2 W 9 17 5 9 - - 0.0
27/10:00am 4.8 1.5 2.3 84 1.1 W 9 20 5 11 - - 0.0
27/09:30am 4.2 1.1 3.6 96 0.3 W 9 24 5 13 - - 0.0
27/09:00am 3.3 -0.6 3.2 99 0.0 W 13 28 7 15 - - 5.2
27/08:30am 3.4 0.2 3.3 99 0.0 W 9 22 5 12 - - 5.2
27/08:00am 2.8 -0.5 2.7 99 0.0 WSW 9 20 5 11 - - 5.2
27/07:30am 2.5 -1.6 2.5 100 0.0 WSW 13 26 7 14 - - 5.2
27/07:00am 2.1 -2.0 2.1 100 0.0 W 13 20 7 11 - - 5.2
27/06:30am 2.4 -1.3 2.4 100 0.0 WSW 11 30 6 16 - - 5.2
27/06:00am 2.6 -0.3 2.6 100 0.0 W 7 20 4 11 - - 5.2
27/05:30am 2.8 -1.6 2.8 100 0.0 W 15 28 8 15 - - 5.2
27/05:00am 3.1 -2.0 3.1 100 0.0 WSW 19 39 10 21 - - 5.2
27/04:30am 3.7 -0.5 3.7 100 0.0 W 15 41 8 22 - - 5.2
27/04:00am 4.4 -0.1 4.4 100 0.0 NW 17 35 9 19 - - 4.4
27/03:30am 4.3 1.0 4.3 100 0.0 N 11 24 6 13 - - 3.8
27/03:00am 4.0 1.0 4.0 100 0.0 N 9 19 5 10 - - 3.2
27/02:30am 4.0 1.0 4.0 100 0.0 N 9 19 5 10 - - 2.0
27/02:00am 4.1 1.5 4.1 100 0.0 N 7 19 4 10 - - 0.6
27/01:30am 4.2 1.2 4.2 100 0.0 N 9 19 5 10 - - 0.4
27/01:00am 4.3 1.3 4.2 99 0.0 N 9 20 5 11 - - 0.4
27/12:30am 4.5 1.9 4.4 99 0.0 NNE 7 13 4 7 - - 0.4
27/12:00am 4.6 2.1 4.5 99 0.0 N 7 20 4 11 - - 0.4
 
Date/Time
EST
Temp
°C
App
Temp
°C
Dew
Point
°C
Rel
Hum
%
Delta-T
°C
Wind Press
QNH
hPa
Press
MSL
hPa
Rain since
9am
mm
Dir  Spd
km/h
Gust
km/h
Spd
kts
Gust
kts
26/11:30pm 4.7 2.2 4.6 99 0.0 NNE 7 15 4 8 - - 0.4
26/11:00pm 4.9 2.5 4.3 96 0.3 NNE 6 11 3 6 - - 0.0
26/10:30pm 4.9 2.4 3.9 93 0.4 NNE 6 9 3 5 - - 0.0
26/10:00pm 4.8 2.3 3.9 94 0.4 NNE 6 11 3 6 - - 0.0
26/09:30pm 5.0 2.5 4.0 93 0.4 NNW 6 13 3 7 - - 0.0
26/09:00pm 5.0 2.5 3.7 91 0.6 NNW 6 9 3 5 - - 0.0
26/08:30pm 5.3 2.7 3.3 87 0.9 NNW 6 9 3 5 - - 0.0
26/08:00pm 5.4 2.9 3.6 88 0.8 NW 6 13 3 7 - - 0.0
26/07:30pm 5.3 2.7 3.3 87 0.9 WNW 6 13 3 7 - - 0.0
26/07:00pm 5.4 2.8 3.1 85 1.0 WNW 6 9 3 5 - - 0.0
26/06:30pm 5.7 3.0 2.9 82 1.2 WNW 6 9 3 5 - - 0.0
26/06:00pm 5.9 3.3 3.4 84 1.1 WNW 6 9 3 5 - - 0.0
26/05:30pm 6.2 3.7 3.5 83 1.2 WNW 6 9 3 5 - - 0.0
26/05:00pm 6.5 3.9 3.3 80 1.4 W 6 11 3 6 - - 0.0
26/04:30pm 6.9 4.0 2.8 75 1.8 NW 7 15 4 8 - - 0.0
26/04:00pm 6.8 3.3 1.5 69 2.3 WSW 9 17 5 9 - - 0.0
26/03:30pm 7.2 3.8 1.9 69 2.3 WNW 9 19 5 10 - - 0.0
26/03:00pm 6.8 3.5 2.3 73 2.0 W 9 19 5 10 - - 0.0
26/02:30pm 6.9 3.7 3.0 76 1.7 W 9 20 5 11 - - 0.0
26/02:00pm 6.6 2.8 1.9 72 2.0 W 11 19 6 10 - - 0.0
26/01:30pm 6.9 3.5 1.8 70 2.2 W 9 22 5 12 - - 0.0
26/01:00pm 7.1 3.7 1.8 69 2.3 WSW 9 26 5 14 - - 0.0
26/12:30pm 6.9 3.1 1.6 69 2.3 WNW 11 22 6 12 - - 0.0
26/12:00pm 6.4 3.2 2.9 78 1.5 W 9 19 5 10 - - 0.0
26/11:30am 6.0 3.0 2.1 76 1.7 NW 7 19 4 10 - - 0.0
26/11:00am 6.4 3.4 0.9 68 2.3 WNW 6 19 3 10 - - 0.0
26/10:30am 7.5 4.0 1.1 64 2.7 W 9 20 5 11 - - 0.0
26/10:00am 6.9 4.0 1.2 67 2.4 SW 6 13 3 7 - - 0.0
26/09:30am 6.7 3.0 0.2 63 2.7 WSW 9 24 5 13 - - 0.0
26/09:00am 6.7 3.6 1.2 68 2.3 WSW 7 17 4 9 - - 0.6
26/08:30am 6.2 3.1 1.1 70 2.2 WSW 7 17 4 9 - - 0.6
26/08:00am 5.0 1.7 0.4 72 1.9 WSW 7 17 4 9 - - 0.6
26/07:30am 3.9 0.7 0.6 79 1.3 WSW 7 20 4 11 - - 0.6
26/07:00am 3.6 -0.5 0.1 78 1.4 WSW 11 20 6 11 - - 0.6
26/06:30am 2.9 -0.3 1.0 87 0.8 WSW 7 11 4 6 - - 0.6
26/06:00am 2.4 -0.6 0.6 88 0.7 WSW 6 9 3 5 - - 0.6
26/05:30am 2.8 0.5 0.5 85 0.9 WSW 2 4 1 2 - - 0.6
26/05:00am 2.6 -0.1 0.5 86 0.8 WSW 4 6 2 3 - - 0.6
26/04:30am 3.0 0.0 0.6 84 1.0 WSW 6 9 3 5 - - 0.6
26/04:00am 3.5 0.8 0.6 81 1.2 WSW 4 6 2 3 - - 0.6
26/03:30am 3.2 0.6 0.9 85 0.9 WSW 4 7 2 4 - - 0.6
26/03:00am 3.8 0.8 0.7 80 1.3 WSW 6 7 3 4 - - 0.6
26/02:30am 3.5 0.5 0.9 83 1.1 WSW 6 9 3 5 - - 0.6
26/02:00am 3.4 0.4 0.8 83 1.1 WSW 6 9 3 5 - - 0.6
26/01:30am 3.6 0.6 0.8 82 1.1 WSW 6 7 3 4 - - 0.6
26/01:00am 3.6 0.7 1.2 84 1.0 WSW 6 7 3 4 - - 0.6
26/12:30am 3.1 0.6 1.5 89 0.7 WSW 4 6 2 3 - - 0.6
26/12:00am 3.6 0.7 1.6 87 0.8 WSW 6 9 3 5 - - 0.6
 
Date/Time
EST
Temp
°C
App
Temp
°C
Dew
Point
°C
Rel
Hum
%
Delta-T
°C
Wind Press
QNH
hPa
Press
MSL
hPa
Rain since
9am
mm
Dir  Spd
km/h
Gust
km/h
Spd
kts
Gust
kts
25/11:30pm 3.8 0.9 1.7 86 0.9 WSW 6 7 3 4 - - 0.6
25/11:00pm 3.6 0.8 1.8 88 0.8 WSW 6 9 3 5 - - 0.6
25/10:30pm 4.0 0.6 2.0 87 0.8 W 9 17 5 9 - - 0.6
25/10:00pm 4.0 0.3 2.4 89 0.7 W 11 20 6 11 - - 0.6
25/09:30pm 4.2 0.9 2.4 88 0.8 W 9 15 5 8 - - 0.6
25/09:00pm 4.5 1.2 2.5 87 0.9 WSW 9 15 5 8 - - 0.6
25/08:30pm 4.8 1.2 3.1 89 0.7 W 11 20 6 11 - - 0.6
25/08:00pm 5.3 1.4 3.6 89 0.8 W 13 22 7 12 - - 0.6
25/07:30pm 5.5 2.1 4.0 90 0.7 W 11 19 6 10 - - 0.6
25/07:00pm 5.9 2.2 4.2 89 0.8 W 13 20 7 11 - - 0.6
25/06:30pm 6.3 2.2 4.1 86 1.0 W 15 24 8 13 - - 0.6
25/06:00pm 7.0 2.5 4.3 83 1.2 W 17 28 9 15 - - 0.6
25/05:30pm 8.2 4.5 4.6 78 1.7 WSW 13 24 7 13 - - 0.6
25/05:00pm 9.2 6.3 4.4 72 2.3 W 9 24 5 13 - - 0.6
25/04:30pm 9.9 6.7 5.1 72 2.3 W 11 22 6 12 - - 0.6
25/04:00pm 10.2 7.3 6.4 77 1.9 WSW 11 26 6 14 - - 0.6
25/03:30pm 9.9 7.9 7.0 82 1.4 W 7 15 4 8 - - 0.6
25/03:00pm 10.1 7.4 7.5 84 1.3 W 11 24 6 13 - - 0.6
25/02:30pm 10.6 8.4 7.8 83 1.4 W 9 20 5 11 - - 0.6
25/02:00pm 11.1 8.6 8.1 82 1.5 W 11 20 6 11 - - 0.6
25/01:30pm 10.0 8.3 8.3 89 0.9 WSW 7 19 4 10 - - 0.6
25/01:00pm 9.6 7.8 9.3 98 0.2 WSW 9 19 5 10 - - 0.6
25/12:30pm 8.8 7.4 8.8 100 0.0 W 6 13 3 7 - - 0.6
25/12:00pm 8.4 6.7 8.4 100 0.0 WSW 7 19 4 10 - - 0.6
25/11:30am 8.6 6.6 8.6 100 0.0 W 9 22 5 12 - - 0.6
25/11:00am 7.9 6.1 7.9 100 0.0 W 7 13 4 7 - - 0.4
25/10:30am 7.7 5.8 7.7 100 0.0 W 7 17 4 9 - - 0.2

Other Formats:

Comma delimited format used in spreadsheet applications
http://www.bom.gov.au/fwo/IDV60801/IDV60801.94878.axf

JavaScript Object Notation format (JSON) in row-major order
http://www.bom.gov.au/fwo/IDV60801/IDV60801.94878.json